createdAt,value
2023-02-08T00:00:48.303Z,35.68
2023-02-08T00:03:51.500Z,37.58
2023-02-08T00:06:54.016Z,37.10
2023-02-08T00:09:58.769Z,36.45
2023-02-08T00:13:01.255Z,36.41
2023-02-08T00:16:04.433Z,37.13
2023-02-08T00:19:06.620Z,36.27
2023-02-08T00:22:11.675Z,34.45
2023-02-08T00:25:13.749Z,37.80
2023-02-08T00:28:17.173Z,36.48
2023-02-08T00:31:19.360Z,34.74
2023-02-08T00:34:21.559Z,37.06
2023-02-08T00:37:24.346Z,35.77
2023-02-08T00:40:27.288Z,35.13
2023-02-08T00:43:29.440Z,35.08
2023-02-08T00:46:33.254Z,36.00
2023-02-08T00:49:35.434Z,35.61
2023-02-08T00:52:38.758Z,34.62
2023-02-08T00:55:41.412Z,37.31
2023-02-08T00:58:44.978Z,35.06
2023-02-08T01:01:49.148Z,33.84
2023-02-08T01:04:51.354Z,36.52
2023-02-08T01:07:53.638Z,35.42
2023-02-08T01:11:04.676Z,35.19
2023-02-08T01:14:06.922Z,35.70
2023-02-08T01:17:09.099Z,36.38
2023-02-08T01:20:11.985Z,34.46
2023-02-08T01:23:14.131Z,34.36
2023-02-08T01:26:18.205Z,35.82
2023-02-08T01:29:20.730Z,34.32
2023-02-08T01:32:22.847Z,33.40
2023-02-08T01:35:24.998Z,35.60
2023-02-08T01:38:27.064Z,34.05
2023-02-08T01:41:32.686Z,33.51
2023-02-08T01:45:12.110Z,34.91
2023-02-08T01:48:23.361Z,34.71
2023-02-08T01:51:31.573Z,33.85
2023-02-08T01:54:39.160Z,34.96
2023-02-08T01:57:43.011Z,35.78
2023-02-08T02:00:45.991Z,33.81
2023-02-08T02:03:48.275Z,32.62
2023-02-08T02:06:58.910Z,35.30
2023-02-08T02:10:11.032Z,33.89
2023-02-08T02:13:24.964Z,32.36
2023-02-08T02:16:27.116Z,35.20
2023-02-08T02:19:31.999Z,34.08
2023-02-08T02:23:01.945Z,32.15
2023-02-08T02:26:40.693Z,35.26
2023-02-08T02:30:10.587Z,33.69
2023-02-08T02:33:16.501Z,32.01
2023-02-08T02:36:32.750Z,35.23
2023-02-08T02:39:58.701Z,34.19
2023-02-08T02:43:21.922Z,33.10
2023-02-08T02:46:29.121Z,35.30
2023-02-08T02:49:38.594Z,33.23
2023-02-08T02:52:48.798Z,33.23
2023-02-08T02:55:58.854Z,34.45
2023-02-08T02:59:05.682Z,34.07
2023-02-08T03:02:09.066Z,33.22
2023-02-08T03:05:13.672Z,33.19
2023-02-08T03:08:40.457Z,33.84
2023-02-08T03:11:53.451Z,31.98
2023-02-08T03:15:16.812Z,32.70
2023-02-08T03:18:21.571Z,34.57
2023-02-08T03:21:35.493Z,32.42
2023-02-08T03:24:37.532Z,31.56
2023-02-08T03:27:49.601Z,34.27
2023-02-08T03:31:13.324Z,33.10
2023-02-08T03:34:19.298Z,32.06
2023-02-08T03:37:30.255Z,34.27
2023-02-08T03:40:56.333Z,33.07
2023-02-08T03:44:06.386Z,31.59
2023-02-08T03:47:19.914Z,34.03
2023-02-08T03:50:24.231Z,33.86
2023-02-08T03:53:27.763Z,31.70
2023-02-08T03:56:41.852Z,34.27
2023-02-08T03:59:50.312Z,32.65
2023-02-08T04:02:57.862Z,32.17
2023-02-08T04:06:00.181Z,32.76
2023-02-08T04:09:02.266Z,34.02
2023-02-08T04:12:05.731Z,32.67
2023-02-08T04:15:08.767Z,32.48
2023-02-08T04:18:11.002Z,34.08
2023-02-08T04:21:13.525Z,33.69
2023-02-08T04:24:15.556Z,31.67
2023-02-08T04:27:17.841Z,34.32
2023-02-08T04:30:20.010Z,33.75
2023-02-08T04:33:22.159Z,32.44
2023-02-08T04:36:24.364Z,33.58
2023-02-08T04:39:26.455Z,34.28
2023-02-08T04:42:28.553Z,32.33
2023-02-08T04:45:32.182Z,31.68
2023-02-08T04:48:34.750Z,34.63
2023-02-08T04:51:36.975Z,33.69
2023-02-08T04:54:40.858Z,31.69
2023-02-08T04:57:45.071Z,34.23
2023-02-08T05:00:47.104Z,32.44
2023-02-08T05:03:49.290Z,31.09
2023-02-08T05:06:51.292Z,33.01
2023-02-08T05:09:53.473Z,33.25
2023-02-08T05:12:55.447Z,31.87
2023-02-08T05:15:57.991Z,33.06
2023-02-08T05:19:01.106Z,32.51
2023-02-08T05:22:03.216Z,34.47
2023-02-08T05:25:05.754Z,37.39
2023-02-08T05:28:07.835Z,40.88
2023-02-08T05:31:24.872Z,44.65
2023-02-08T05:34:27.093Z,47.78
2023-02-08T05:37:29.106Z,50.84
2023-02-08T05:43:33.645Z,52.79
2023-02-08T05:46:38.074Z,52.40
2023-02-08T05:49:40.680Z,53.53
2023-02-08T05:52:42.781Z,53.50
2023-02-08T05:55:46.619Z,52.76
2023-02-08T05:58:48.702Z,52.25
2023-02-08T06:01:51.238Z,52.83
2023-02-08T06:04:53.338Z,52.55
2023-02-08T06:07:55.422Z,52.17
2023-02-08T06:10:57.465Z,52.37
2023-02-08T06:13:59.949Z,53.08
2023-02-08T06:17:01.941Z,53.26
2023-02-08T06:20:05.323Z,52.20
2023-02-08T06:23:07.513Z,52.30
2023-02-08T06:26:09.609Z,53.71
2023-02-08T06:29:11.710Z,54.95
2023-02-08T06:32:13.929Z,55.50
2023-02-08T06:35:16.175Z,57.26
2023-02-08T06:38:18.348Z,56.16
2023-02-08T06:41:20.959Z,61.59
2023-02-08T06:44:23.253Z,63.42
2023-02-08T06:47:30.965Z,62.26
2023-02-08T06:50:33.037Z,64.55
2023-02-08T06:53:35.135Z,65.02
2023-02-08T06:56:37.522Z,68.58
2023-02-08T06:59:40.388Z,68.03
2023-02-08T07:02:42.732Z,67.43
2023-02-08T07:05:58.686Z,70.95
2023-02-08T07:09:05.949Z,65.17
2023-02-08T07:12:08.356Z,63.59
2023-02-08T07:15:13.398Z,61.54
2023-02-08T07:18:15.634Z,61.53
2023-02-08T07:21:17.819Z,61.75
2023-02-08T07:24:20.744Z,60.66
2023-02-08T07:27:25.028Z,59.81
2023-02-08T07:30:28.230Z,58.43
2023-02-08T07:33:30.893Z,57.81
2023-02-08T07:36:38.120Z,58.44
2023-02-08T07:39:40.400Z,76.21
2023-02-08T07:42:42.478Z,81.74
2023-02-08T07:45:57.098Z,78.36
2023-02-08T07:48:59.257Z,74.50
2023-02-08T07:52:02.030Z,75.49
2023-02-08T07:55:04.240Z,71.58
2023-02-08T07:58:10.074Z,70.23
2023-02-08T08:01:22.358Z,68.81
2023-02-08T08:04:26.775Z,67.21
2023-02-08T08:07:28.794Z,64.88
2023-02-08T08:10:32.538Z,65.28
2023-02-08T08:13:36.846Z,63.40
2023-02-08T08:16:38.996Z,61.60
2023-02-08T08:19:41.602Z,57.84
2023-02-08T08:22:43.998Z,58.87
2023-02-08T08:25:46.228Z,58.02
2023-02-08T08:28:49.630Z,54.53
2023-02-08T08:31:58.826Z,56.56
2023-02-08T08:35:01.133Z,53.27
2023-02-08T08:38:09.302Z,50.58
2023-02-08T08:41:15.057Z,52.63
2023-02-08T08:44:17.775Z,51.43
2023-02-08T08:47:20.823Z,48.75
2023-02-08T08:50:23.377Z,48.08
2023-02-08T08:53:27.279Z,50.67
2023-02-08T08:56:30.241Z,48.67
2023-02-08T08:59:33.220Z,47.25
2023-02-08T09:02:35.598Z,48.89
2023-02-08T09:05:37.688Z,46.96
2023-02-08T09:08:41.311Z,45.66
2023-02-08T09:11:43.497Z,47.92
2023-02-08T09:14:45.597Z,46.29
2023-02-08T09:17:47.743Z,45.16
2023-02-08T09:20:50.266Z,43.84
2023-02-08T09:23:52.424Z,44.93
2023-02-08T09:26:55.619Z,44.28
2023-02-08T09:30:00.444Z,42.97
2023-02-08T09:33:06.273Z,43.75
2023-02-08T09:36:09.726Z,43.31
2023-02-08T09:39:19.268Z,41.63
2023-02-08T09:42:30.428Z,43.27
2023-02-08T09:46:08.296Z,41.36
2023-02-08T09:49:18.971Z,40.23
2023-02-08T09:52:27.801Z,43.12
2023-02-08T09:55:35.229Z,42.11
2023-02-08T09:58:44.955Z,39.42
2023-02-08T10:01:49.927Z,41.19
2023-02-08T10:05:03.826Z,42.59
2023-02-08T10:08:09.904Z,42.73
2023-02-08T10:11:40.115Z,42.63
2023-02-08T10:15:00.983Z,47.06
2023-02-08T10:18:41.226Z,43.11
2023-02-08T10:21:56.130Z,42.79
2023-02-08T10:25:25.597Z,44.19
2023-02-08T10:28:30.633Z,52.30
2023-02-08T10:32:15.162Z,51.36
2023-02-08T10:35:39.565Z,49.78
2023-02-08T10:38:46.810Z,47.98
2023-02-08T10:41:50.553Z,46.51
2023-02-08T10:45:01.666Z,48.08
2023-02-08T10:48:10.717Z,47.68
2023-02-08T10:51:16.944Z,46.50
2023-02-08T10:54:19.173Z,45.88
2023-02-08T10:57:26.094Z,48.06
2023-02-08T11:00:32.517Z,46.02
2023-02-08T11:03:35.868Z,44.94
2023-02-08T11:06:41.864Z,47.93
2023-02-08T11:09:43.996Z,45.36
2023-02-08T11:12:56.734Z,43.25
2023-02-08T11:16:01.489Z,44.94
2023-02-08T11:19:08.478Z,43.54
2023-02-08T11:22:18.035Z,41.62
2023-02-08T11:25:39.626Z,43.88
2023-02-08T11:28:42.323Z,41.68
2023-02-08T11:32:02.604Z,41.18
2023-02-08T11:35:24.538Z,42.17
2023-02-08T11:38:28.692Z,41.18
2023-02-08T11:41:34.050Z,41.12
2023-02-08T11:44:44.234Z,42.11
2023-02-08T11:47:48.532Z,44.13
2023-02-08T11:50:58.023Z,42.92
2023-02-08T11:54:04.636Z,42.72
2023-02-08T12:06:17.504Z,46.32
2023-02-08T12:10:29.904Z,47.40
2023-02-08T12:14:32.985Z,48.71
2023-02-08T12:18:22.741Z,48.94
2023-02-08T12:21:29.766Z,49.98
2023-02-08T12:24:56.943Z,50.57
2023-02-08T12:28:31.044Z,51.50
2023-02-08T12:32:06.388Z,52.87
2023-02-08T12:35:48.298Z,52.51
2023-02-08T12:39:51.821Z,52.62
2023-02-08T12:43:13.965Z,53.05
2023-02-08T12:46:49.887Z,53.30
2023-02-08T12:50:19.873Z,54.47
2023-02-08T12:53:31.141Z,53.93
2023-02-08T12:56:39.111Z,53.01
2023-02-08T12:59:55.781Z,58.77
2023-02-08T13:03:10.269Z,64.92
2023-02-08T13:06:20.771Z,73.02
2023-02-08T13:09:49.040Z,82.73
2023-02-08T13:12:53.703Z,86.88
2023-02-08T13:16:36.713Z,88.51
2023-02-08T13:19:58.997Z,91.42
2023-02-08T13:23:07.960Z,95.62
2023-02-08T13:26:23.692Z,98.40
2023-02-08T13:29:28.339Z,99.23
2023-02-08T13:32:44.481Z,100.00
2023-02-08T13:35:53.505Z,94.86
2023-02-08T13:38:58.403Z,92.09
2023-02-08T13:42:01.961Z,90.05
2023-02-08T13:45:07.788Z,89.00
2023-02-08T13:48:18.677Z,88.88
2023-02-08T13:51:34.288Z,86.87
2023-02-08T13:54:36.312Z,85.95
2023-02-08T13:57:53.501Z,83.20
2023-02-08T14:00:56.622Z,80.79
2023-02-08T14:04:07.764Z,72.99
2023-02-08T14:07:36.393Z,70.37
2023-02-08T14:10:46.805Z,71.55
2023-02-08T14:13:59.418Z,70.37
2023-02-08T14:17:04.266Z,69.66
2023-02-08T14:20:07.738Z,69.87
2023-02-08T14:23:26.424Z,68.65
2023-02-08T14:26:29.202Z,67.73
2023-02-08T14:29:33.107Z,70.81
2023-02-08T14:32:39.039Z,67.95
2023-02-08T14:35:50.781Z,65.15
2023-02-08T14:38:55.090Z,62.04
2023-02-08T14:42:01.790Z,63.44
2023-02-08T14:45:05.202Z,62.05
2023-02-08T14:48:19.473Z,57.03
2023-02-08T14:51:32.295Z,60.38
2023-02-08T14:54:46.660Z,58.33
2023-02-08T14:57:49.141Z,57.36
2023-02-08T15:00:54.282Z,58.83
2023-02-08T15:04:02.313Z,58.30
2023-02-08T15:07:15.647Z,58.33
2023-02-08T15:10:20.569Z,60.07
2023-02-08T15:13:27.697Z,60.10
2023-02-08T15:16:41.805Z,55.72
2023-02-08T15:19:46.600Z,57.50
2023-02-08T15:22:49.163Z,60.26
2023-02-08T15:25:56.914Z,59.33
2023-02-08T15:29:03.361Z,59.07
2023-02-08T15:32:14.387Z,61.53
2023-02-08T15:35:24.381Z,61.24
2023-02-08T15:38:27.293Z,57.60
2023-02-08T15:41:34.011Z,61.66
2023-02-08T15:44:36.193Z,61.86
2023-02-08T15:47:39.994Z,59.46
2023-02-08T15:50:42.387Z,62.67
2023-02-08T15:53:48.538Z,63.44
2023-02-08T15:57:05.365Z,57.49
2023-02-08T16:00:39.798Z,55.77
2023-02-08T16:03:48.377Z,54.71
2023-02-08T16:06:55.231Z,53.52
2023-02-08T16:09:58.002Z,55.79
2023-02-08T16:13:06.005Z,57.39
2023-02-08T16:16:18.729Z,56.47
2023-02-08T16:19:29.268Z,56.49
2023-02-08T16:22:33.646Z,59.88
2023-02-08T16:25:45.465Z,56.63
2023-02-08T16:29:00.927Z,54.88
2023-02-08T16:32:13.347Z,54.39
2023-02-08T16:35:25.365Z,52.46
2023-02-08T16:38:31.548Z,49.47
2023-02-08T16:41:57.238Z,52.63
2023-02-08T16:45:17.308Z,56.52
2023-02-08T16:48:35.019Z,52.28
2023-02-08T16:51:39.629Z,47.92
2023-02-08T16:54:42.231Z,48.73
2023-02-08T16:58:00.167Z,51.24
2023-02-08T17:01:03.831Z,48.46
2023-02-08T17:04:08.467Z,45.64
2023-02-08T17:07:30.135Z,48.91
2023-02-08T17:10:36.070Z,46.47
2023-02-08T17:13:41.685Z,44.13
2023-02-08T17:16:44.720Z,43.40
2023-02-08T17:19:48.000Z,47.00
2023-02-08T17:22:52.361Z,45.74
2023-02-08T17:26:06.371Z,43.44
2023-02-08T17:29:13.535Z,42.55
2023-02-08T17:32:16.376Z,47.11
2023-02-08T17:35:19.636Z,45.80
2023-02-08T17:38:22.201Z,41.71
2023-02-08T17:41:31.469Z,41.19
2023-02-08T17:44:43.890Z,45.63
2023-02-08T17:47:47.071Z,43.88
2023-02-08T17:50:52.464Z,41.90
2023-02-08T17:53:58.193Z,40.82
2023-02-08T17:57:00.682Z,45.14
2023-02-08T18:00:05.926Z,42.67
2023-02-08T18:03:14.074Z,40.74
2023-02-08T18:06:18.311Z,41.43
2023-02-08T18:09:32.956Z,46.11
2023-02-08T18:13:16.335Z,51.92
2023-02-08T18:16:38.414Z,55.72
2023-02-08T18:19:40.667Z,57.74
2023-02-08T18:22:47.886Z,58.10
2023-02-08T18:25:50.968Z,56.52
2023-02-08T18:28:55.601Z,52.35
2023-02-08T18:31:57.801Z,54.00
2023-02-08T18:35:04.261Z,55.08
2023-02-08T18:38:06.532Z,52.63
2023-02-08T18:41:21.474Z,50.08
2023-02-08T18:44:23.618Z,50.46
2023-02-08T18:47:25.768Z,47.76
2023-02-08T18:50:29.467Z,45.18
2023-02-08T18:53:35.178Z,43.75
2023-02-08T18:56:37.214Z,47.56
2023-02-08T18:59:41.647Z,45.69
2023-02-08T19:02:47.177Z,43.51
2023-02-08T19:05:49.946Z,42.24
2023-02-08T19:08:54.997Z,45.99
2023-02-08T19:11:57.718Z,44.82
2023-02-08T19:14:59.946Z,42.48
2023-02-08T19:18:02.402Z,42.77
2023-02-08T19:21:12.936Z,47.02
2023-02-08T19:24:15.670Z,45.07
2023-02-08T19:27:18.857Z,43.04
2023-02-08T19:30:22.476Z,42.44
2023-02-08T19:33:26.082Z,45.16
2023-02-08T19:36:33.512Z,44.26
2023-02-08T19:39:41.137Z,41.35
2023-02-08T19:42:46.458Z,41.75
2023-02-08T19:45:48.631Z,45.02
2023-02-08T19:48:53.282Z,42.78
2023-02-08T19:51:56.890Z,41.70
2023-02-08T19:54:59.279Z,41.75
2023-02-08T19:58:03.548Z,43.37
2023-02-08T20:01:17.862Z,42.01
2023-02-08T20:04:24.776Z,40.92
2023-02-08T20:07:26.872Z,41.72
2023-02-08T20:10:28.905Z,44.24
2023-02-08T20:13:31.055Z,42.33
2023-02-08T20:16:34.093Z,40.27
2023-02-08T20:19:38.503Z,41.56
2023-02-08T20:22:40.941Z,42.85
2023-02-08T20:25:43.442Z,42.73
2023-02-08T20:28:51.610Z,40.65
2023-02-08T20:31:56.087Z,41.10
2023-02-08T20:35:00.137Z,43.18
2023-02-08T20:38:02.929Z,41.57
2023-02-08T20:41:11.003Z,40.13
2023-02-08T20:44:23.071Z,41.17
2023-02-08T20:47:27.387Z,42.35
2023-02-08T20:50:31.019Z,41.88
2023-02-08T20:53:34.755Z,39.03
2023-02-08T20:56:38.277Z,40.87
2023-02-08T20:59:42.371Z,41.59
2023-02-08T21:02:44.463Z,40.91
2023-02-08T21:05:46.834Z,39.27
2023-02-08T21:08:51.840Z,41.08
2023-02-08T21:11:54.210Z,41.66
2023-02-08T21:15:15.088Z,41.09
2023-02-08T21:18:17.251Z,39.76
2023-02-08T21:21:20.534Z,41.28
2023-02-08T21:24:26.494Z,41.80
2023-02-08T21:27:29.424Z,40.55
2023-02-08T21:30:32.113Z,37.61
2023-02-08T21:33:37.276Z,39.68
2023-02-08T21:36:40.863Z,40.79
2023-02-08T21:39:45.425Z,38.14
2023-02-08T21:42:49.056Z,36.56
2023-02-08T21:45:51.945Z,38.61
2023-02-08T21:49:14.149Z,37.42
2023-02-08T21:52:36.128Z,35.74
2023-02-08T21:55:38.366Z,37.61
2023-02-08T21:58:40.516Z,35.96
2023-02-08T22:01:42.950Z,34.62
2023-02-08T22:05:03.908Z,37.83
2023-02-08T22:08:06.042Z,36.91
2023-02-08T22:11:09.017Z,37.00
2023-02-08T22:14:12.618Z,37.48
2023-02-08T22:17:15.283Z,37.61
2023-02-08T22:20:17.484Z,36.84
2023-02-08T22:23:19.826Z,36.67
2023-02-08T22:26:22.056Z,39.14
2023-02-08T22:29:24.111Z,36.99
2023-02-08T22:32:26.216Z,35.96
2023-02-08T22:35:28.307Z,38.09
2023-02-08T22:38:30.333Z,36.69
2023-02-08T22:41:32.527Z,35.76
2023-02-08T22:44:39.140Z,37.54
2023-02-08T22:47:41.505Z,38.69
2023-02-08T22:50:44.482Z,37.20
2023-02-08T22:53:47.023Z,38.43
2023-02-08T22:56:49.164Z,39.17
2023-02-08T22:59:52.028Z,38.60
2023-02-08T23:02:54.126Z,37.16
2023-02-08T23:05:56.878Z,39.32
2023-02-08T23:08:59.200Z,38.13
2023-02-08T23:12:01.592Z,36.68
2023-02-08T23:15:04.784Z,39.10
2023-02-08T23:18:08.468Z,38.21
2023-02-08T23:21:13.803Z,37.80
2023-02-08T23:24:17.117Z,37.95
2023-02-08T23:27:19.382Z,38.67
2023-02-08T23:30:21.588Z,38.23
2023-02-08T23:33:23.667Z,36.91
2023-02-08T23:36:25.881Z,38.41
2023-02-08T23:39:27.886Z,38.30
2023-02-08T23:42:29.877Z,37.49
2023-02-08T23:45:32.141Z,38.43
2023-02-08T23:48:36.733Z,38.29
2023-02-08T23:51:40.086Z,37.56
2023-02-08T23:54:42.362Z,37.53
2023-02-08T23:57:44.373Z,38.19
